createdAt,value
2022-10-24T00:04:25.272Z,15.70
2022-10-24T00:09:24.565Z,15.70
2022-10-24T00:14:22.473Z,15.60
2022-10-24T00:19:20.567Z,15.50
2022-10-24T00:24:20.108Z,15.30
2022-10-24T00:29:19.355Z,15.20
2022-10-24T00:34:17.554Z,15.20
2022-10-24T00:39:15.517Z,15.10
2022-10-24T00:44:25.988Z,15.00
2022-10-24T00:49:29.548Z,14.90
2022-10-24T00:54:27.898Z,14.80
2022-10-24T00:59:28.822Z,14.70
2022-10-24T01:04:26.706Z,14.70
2022-10-24T01:09:41.222Z,14.70
2022-10-24T01:14:51.454Z,14.80
2022-10-24T01:20:17.012Z,14.90
2022-10-24T01:25:18.701Z,15.00
2022-10-24T01:30:19.358Z,15.00
2022-10-24T01:40:34.801Z,15.10
2022-10-24T01:45:37.610Z,15.10
2022-10-24T01:50:38.664Z,15.10
2022-10-24T01:55:38.936Z,15.00
2022-10-24T02:00:38.296Z,15.00
2022-10-24T02:05:43.419Z,15.10
2022-10-24T02:10:45.962Z,15.10
2022-10-24T02:15:50.217Z,15.00
2022-10-24T02:20:54.176Z,15.00
2022-10-24T02:25:55.658Z,15.00
2022-10-24T02:31:01.126Z,14.80
2022-10-24T02:36:00.041Z,14.70
2022-10-24T02:40:59.725Z,14.70
2022-10-24T02:45:59.997Z,14.60
2022-10-24T02:50:57.895Z,14.60
2022-10-24T02:55:56.200Z,14.50
2022-10-24T03:00:54.299Z,14.50
2022-10-24T03:05:53.571Z,14.50
2022-10-24T03:10:51.435Z,14.60
2022-10-24T03:15:49.351Z,14.50
2022-10-24T03:20:47.434Z,14.40
2022-10-24T03:25:46.855Z,14.30
2022-10-24T03:30:44.864Z,14.20
2022-10-24T03:35:42.828Z,14.30
2022-10-24T03:40:40.837Z,14.20
2022-10-24T03:45:40.367Z,14.30
2022-10-24T03:50:38.422Z,14.30
2022-10-24T03:55:36.858Z,14.40
2022-10-24T04:00:39.201Z,14.40
2022-10-24T04:10:42.825Z,14.40
2022-10-24T04:15:40.915Z,14.50
2022-10-24T04:20:40.187Z,14.40
2022-10-24T04:25:38.075Z,14.40
2022-10-24T04:30:36.067Z,14.50
2022-10-24T04:35:34.042Z,14.50
2022-10-24T04:40:33.274Z,14.50
2022-10-24T04:45:31.204Z,14.50
2022-10-24T04:50:29.117Z,14.50
2022-10-24T04:55:27.134Z,14.40
2022-10-24T05:00:26.573Z,14.40
2022-10-24T05:05:24.628Z,14.30
2022-10-24T05:10:22.712Z,14.30
2022-10-24T05:15:21.698Z,14.30
2022-10-24T05:20:21.010Z,14.30
2022-10-24T05:25:19.638Z,14.30
2022-10-24T05:30:17.793Z,14.30
2022-10-24T05:35:15.716Z,14.30
2022-10-24T05:40:15.384Z,14.30
2022-10-24T05:45:13.353Z,14.30
2022-10-24T05:50:12.140Z,14.30
2022-10-24T05:55:13.488Z,14.40
2022-10-24T06:00:18.298Z,14.40
2022-10-24T06:05:16.610Z,14.40
2022-10-24T06:10:15.033Z,14.40
2022-10-24T06:15:14.275Z,14.40
2022-10-24T06:20:13.674Z,14.40
2022-10-24T06:25:11.984Z,14.40
2022-10-24T06:30:11.879Z,14.40
2022-10-24T06:35:13.216Z,14.50
2022-10-24T06:40:12.836Z,14.40
2022-10-24T06:45:11.449Z,14.40
2022-10-24T06:50:10.086Z,14.40
2022-10-24T06:55:08.765Z,14.40
2022-10-24T07:00:09.983Z,14.40
2022-10-24T07:05:12.621Z,14.40
2022-10-24T07:10:13.723Z,14.50
2022-10-24T07:15:13.536Z,14.50
2022-10-24T07:20:13.413Z,14.50
2022-10-24T07:25:11.404Z,14.60
2022-10-24T07:30:16.163Z,14.70
2022-10-24T07:35:14.478Z,15.00
2022-10-24T07:40:13.540Z,15.30
2022-10-24T07:45:13.688Z,15.50
2022-10-24T07:50:11.623Z,15.50
2022-10-24T07:55:10.214Z,15.60
2022-10-24T08:00:10.791Z,15.70
2022-10-24T08:05:13.214Z,15.90
2022-10-24T08:10:15.016Z,16.00
2022-10-24T08:15:13.389Z,16.30
2022-10-24T08:20:13.412Z,16.60
2022-10-24T08:25:11.828Z,16.80
2022-10-24T08:30:10.559Z,17.20
2022-10-24T08:35:09.452Z,17.50
2022-10-24T08:40:13.067Z,17.70
2022-10-24T08:45:15.127Z,17.80
2022-10-24T08:50:22.326Z,17.90
2022-10-24T08:55:44.501Z,18.00
2022-10-24T09:00:44.737Z,18.00
2022-10-24T09:05:47.973Z,18.10
2022-10-24T09:10:51.885Z,18.10
2022-10-24T09:15:49.928Z,18.20
2022-10-24T09:20:49.446Z,18.30
2022-10-24T09:25:52.991Z,18.60
2022-10-24T09:30:51.791Z,18.60
2022-10-24T09:35:51.874Z,18.60
2022-10-24T09:40:54.127Z,18.60
2022-10-24T09:46:01.622Z,18.80
2022-10-24T09:51:00.831Z,19.10
2022-10-24T09:56:02.187Z,19.10
2022-10-24T10:01:03.054Z,19.00
2022-10-24T10:06:04.537Z,19.00
2022-10-24T10:11:07.298Z,19.00
2022-10-24T10:16:08.298Z,19.10
2022-10-24T10:21:11.499Z,19.10
2022-10-24T10:26:17.948Z,19.10
2022-10-24T10:31:18.115Z,19.00
2022-10-24T10:36:20.655Z,19.00
2022-10-24T10:41:44.366Z,19.00
2022-10-24T10:46:48.777Z,19.00
2022-10-24T10:51:52.328Z,19.00
2022-10-24T10:56:55.142Z,19.00
2022-10-24T11:02:00.977Z,19.00
2022-10-24T11:07:07.522Z,18.90
2022-10-24T11:12:16.372Z,19.00
2022-10-24T11:17:19.089Z,19.10
2022-10-24T11:22:21.374Z,19.10
2022-10-24T11:27:26.944Z,19.20
2022-10-24T11:32:29.452Z,19.20
2022-10-24T11:37:33.006Z,19.30
2022-10-24T11:42:38.765Z,19.20
2022-10-24T11:47:48.790Z,19.20
2022-10-24T11:52:52.445Z,19.30
2022-10-24T11:57:56.672Z,19.40
2022-10-24T12:03:23.751Z,19.40
2022-10-24T12:08:38.497Z,19.40
2022-10-24T12:14:08.646Z,19.40
2022-10-24T12:19:12.710Z,19.40
2022-10-24T12:24:22.291Z,19.50
2022-10-24T12:29:25.448Z,19.50
2022-10-24T12:34:49.334Z,19.40
2022-10-24T12:39:51.019Z,19.40
2022-10-24T12:44:52.843Z,19.50
2022-10-24T12:49:52.036Z,19.60
2022-10-24T12:54:50.169Z,19.70
2022-10-24T12:59:50.121Z,19.70
2022-10-24T13:05:04.107Z,19.80
2022-10-24T13:10:30.289Z,19.90
2022-10-24T13:15:42.024Z,20.10
2022-10-24T13:20:43.761Z,20.10
2022-10-24T13:25:42.493Z,20.10
2022-10-24T13:30:40.420Z,20.10
2022-10-24T13:35:38.551Z,20.20
2022-10-24T13:40:38.261Z,20.30
2022-10-24T13:45:48.253Z,20.30
2022-10-24T13:50:51.818Z,20.20
2022-10-24T13:55:52.086Z,20.20
2022-10-24T14:00:57.789Z,20.20
2022-10-24T14:05:59.836Z,20.10
2022-10-24T14:11:02.107Z,19.90
2022-10-24T14:16:03.356Z,19.80
2022-10-24T14:21:03.129Z,19.80
2022-10-24T14:26:04.640Z,19.80
2022-10-24T14:31:04.910Z,19.80
2022-10-24T14:36:04.592Z,19.90
2022-10-24T14:41:09.587Z,19.90
2022-10-24T14:46:26.093Z,19.90
2022-10-24T14:51:28.505Z,19.90
2022-10-24T14:56:30.707Z,19.80
2022-10-24T15:01:29.284Z,19.90
2022-10-24T15:06:29.131Z,19.80
2022-10-24T15:11:30.895Z,19.80
2022-10-24T15:16:32.587Z,19.70
2022-10-24T15:21:35.488Z,19.50
2022-10-24T15:26:39.269Z,19.40
2022-10-24T15:31:39.409Z,19.30
2022-10-24T15:36:41.709Z,19.30
2022-10-24T15:41:41.142Z,19.20
2022-10-24T15:46:39.270Z,19.10
2022-10-24T15:51:38.984Z,19.00
2022-10-24T15:56:36.894Z,18.90
2022-10-24T16:01:40.539Z,18.80
2022-10-24T16:06:38.985Z,18.80
2022-10-24T16:11:37.875Z,18.70
2022-10-24T16:16:37.140Z,18.60
2022-10-24T16:21:35.039Z,18.50
2022-10-24T16:26:33.180Z,18.40
2022-10-24T16:31:31.242Z,18.40
2022-10-24T16:36:30.778Z,18.30
2022-10-24T16:41:28.750Z,18.20
2022-10-24T16:46:28.600Z,18.20
2022-10-24T16:51:31.833Z,18.10
2022-10-24T16:56:31.605Z,18.10
2022-10-24T17:01:29.715Z,18.10
2022-10-24T17:06:27.826Z,18.10
2022-10-24T17:11:44.362Z,18.00
2022-10-24T17:16:44.895Z,17.90
2022-10-24T17:21:43.458Z,17.90
2022-10-24T17:26:42.055Z,17.80
2022-10-24T17:31:40.107Z,17.80
2022-10-24T17:36:40.791Z,17.80
2022-10-24T17:41:40.728Z,17.70
2022-10-24T17:46:39.015Z,17.80
2022-10-24T17:51:39.802Z,17.80
2022-10-24T17:56:39.165Z,17.70
2022-10-24T18:01:37.329Z,17.60
2022-10-24T18:06:38.157Z,17.60
2022-10-24T18:11:40.144Z,17.60
2022-10-24T18:16:38.947Z,17.50
2022-10-24T18:21:36.905Z,17.50
2022-10-24T18:26:34.795Z,17.50
2022-10-24T18:31:34.947Z,17.40
2022-10-24T18:36:32.967Z,17.40
2022-10-24T18:41:43.315Z,17.40
2022-10-24T18:46:43.177Z,17.30
2022-10-24T18:51:46.380Z,17.30
2022-10-24T18:56:44.467Z,17.20
2022-10-24T19:01:52.720Z,17.20
2022-10-24T19:06:53.955Z,17.20
2022-10-24T19:11:52.586Z,17.20
2022-10-24T19:16:53.290Z,17.20
2022-10-24T19:21:51.243Z,17.10
2022-10-24T19:26:49.848Z,17.10
2022-10-24T19:31:47.834Z,17.10
2022-10-24T19:36:47.085Z,17.10
2022-10-24T19:41:45.014Z,17.10
2022-10-24T19:46:42.918Z,17.10
2022-10-24T19:51:40.778Z,17.10
2022-10-24T19:56:40.036Z,17.00
2022-10-24T20:01:38.013Z,17.10
2022-10-24T20:06:36.104Z,17.00
2022-10-24T20:11:34.011Z,17.00
2022-10-24T20:16:33.508Z,17.00
2022-10-24T20:21:31.408Z,17.00
2022-10-24T20:26:29.342Z,16.90
2022-10-24T20:31:29.755Z,16.90
2022-10-24T20:36:30.617Z,16.90
2022-10-24T20:41:28.705Z,16.80
2022-10-24T20:46:26.623Z,16.80
2022-10-24T20:51:24.563Z,16.80
2022-10-24T20:56:26.527Z,16.70
2022-10-24T21:01:27.356Z,16.80
2022-10-24T21:06:27.572Z,16.80
2022-10-24T21:11:28.356Z,16.70
2022-10-24T21:16:27.323Z,16.70
2022-10-24T21:21:25.672Z,16.70
2022-10-24T21:26:24.588Z,16.70
2022-10-24T21:31:25.486Z,16.60
2022-10-24T21:36:24.835Z,16.60
2022-10-24T21:41:23.840Z,16.60
2022-10-24T21:46:25.284Z,16.50
2022-10-24T21:51:25.998Z,16.50
2022-10-24T21:56:25.540Z,16.50
2022-10-24T22:01:26.751Z,16.50
2022-10-24T22:06:25.620Z,16.40
2022-10-24T22:11:24.832Z,16.40
2022-10-24T22:16:25.621Z,16.40
2022-10-24T22:21:27.206Z,16.40
2022-10-24T22:26:25.146Z,16.40
2022-10-24T22:31:26.430Z,16.30
2022-10-24T22:36:39.390Z,16.30
2022-10-24T22:41:37.779Z,16.30
2022-10-24T22:46:51.887Z,16.30
2022-10-24T22:51:50.284Z,16.20
2022-10-24T22:56:48.998Z,16.10
2022-10-24T23:02:00.561Z,16.00
2022-10-24T23:07:05.216Z,16.00
2022-10-24T23:12:03.539Z,16.00
2022-10-24T23:17:03.156Z,16.00
2022-10-24T23:22:06.881Z,15.90
2022-10-24T23:27:29.264Z,15.90
2022-10-24T23:32:30.683Z,15.90
2022-10-24T23:37:32.974Z,15.90
2022-10-24T23:42:31.534Z,15.80
2022-10-24T23:47:55.240Z,15.80
2022-10-24T23:53:07.317Z,15.80
2022-10-24T23:58:05.213Z,15.70
